Terminal Aerodrome Forecast
Issued by NWS

Current Version | Previous Version | Text Only | Print | Product List | Glossary On
Versions: 1 2 3 4 5 6 7 8 9 10 11 12 13 14 15 16 17 18
000
FTUS42 KTAE 311100
TAFVLD
TAF
KVLD 311124Z 3112/0112 33005KT P6SM SKC
     FM311900 32007G12KT P6SM SKC
     FM010300 30009KT P6SM SKC=

USA.gov is the U.S. government's official web portal to all federal, state and local government web resources and services.